createdAt,value
2018-11-03T00:01:39.335Z,14.40
2018-11-03T00:04:09.235Z,14.39
2018-11-03T00:06:39.142Z,14.39
2018-11-03T00:09:10.526Z,14.36
2018-11-03T00:11:40.730Z,14.34
2018-11-03T00:14:10.798Z,14.34
2018-11-03T00:16:40.674Z,14.33
2018-11-03T00:19:10.606Z,14.33
2018-11-03T00:21:40.417Z,14.32
2018-11-03T00:24:10.379Z,14.35
2018-11-03T00:26:40.236Z,14.35
2018-11-03T00:29:10.136Z,14.36
2018-11-03T00:31:40.045Z,14.37
2018-11-03T00:34:09.955Z,14.38
2018-11-03T00:36:39.835Z,14.40
2018-11-03T00:39:11.760Z,14.40
2018-11-03T00:41:42.172Z,13.79
2018-11-03T00:44:12.078Z,14.41
2018-11-03T00:46:41.992Z,14.40
2018-11-03T00:49:11.882Z,14.39
2018-11-03T00:51:41.734Z,14.39
2018-11-03T00:54:11.631Z,14.40
2018-11-03T00:56:41.467Z,14.41
2018-11-03T00:59:11.362Z,14.40
2018-11-03T01:01:41.146Z,14.38
2018-11-03T01:04:11.087Z,14.38
2018-11-03T01:06:41.013Z,14.41
2018-11-03T01:09:10.897Z,14.42
2018-11-03T01:11:40.783Z,14.44
2018-11-03T01:14:10.712Z,14.45
2018-11-03T01:16:40.500Z,14.44
2018-11-03T01:19:10.362Z,14.43
2018-11-03T01:21:40.231Z,14.45
2018-11-03T01:24:10.068Z,14.47
2018-11-03T01:26:39.986Z,14.49
2018-11-03T01:29:09.862Z,14.50
2018-11-03T01:31:39.687Z,14.49
2018-11-03T01:34:09.581Z,14.51
2018-11-03T01:36:39.524Z,14.54
2018-11-03T01:39:11.210Z,14.53
2018-11-03T01:41:41.162Z,14.53
2018-11-03T01:44:11.046Z,14.50
2018-11-03T01:46:40.886Z,14.47
2018-11-03T01:49:10.797Z,14.45
2018-11-03T01:51:40.692Z,14.44
2018-11-03T01:54:10.529Z,14.43
2018-11-03T01:56:40.448Z,14.43
2018-11-03T01:59:10.344Z,14.43
2018-11-03T02:01:40.258Z,14.42
2018-11-03T02:04:10.267Z,14.43
2018-11-03T02:06:40.178Z,14.41
2018-11-03T02:09:10.870Z,14.42
2018-11-03T02:11:40.816Z,14.41
2018-11-03T02:14:11.693Z,14.40
2018-11-03T02:16:41.687Z,14.40
2018-11-03T02:19:11.524Z,14.41
2018-11-03T02:21:41.296Z,14.41
2018-11-03T02:24:11.236Z,14.41
2018-11-03T02:26:41.054Z,14.43
2018-11-03T02:29:11.066Z,14.46
2018-11-03T02:31:41.029Z,14.49
2018-11-03T02:34:10.849Z,14.49
2018-11-03T02:36:40.723Z,14.49
2018-11-03T02:39:10.963Z,14.48
2018-11-03T02:41:40.814Z,14.46
2018-11-03T02:44:10.773Z,14.47
2018-11-03T02:46:40.633Z,14.47
2018-11-03T02:49:10.568Z,14.47
2018-11-03T02:51:40.342Z,14.46
2018-11-03T02:54:10.262Z,14.44
2018-11-03T02:56:40.121Z,14.43
2018-11-03T02:59:10.540Z,14.43
2018-11-03T03:01:40.446Z,14.43
2018-11-03T03:04:10.275Z,14.43
2018-11-03T03:06:40.166Z,14.41
2018-11-03T03:09:10.056Z,14.40
2018-11-03T03:11:39.884Z,14.39
2018-11-03T03:14:09.927Z,14.39
2018-11-03T03:16:39.818Z,14.41
2018-11-03T03:19:09.725Z,14.40
2018-11-03T03:21:39.580Z,14.41
2018-11-03T03:24:09.490Z,14.41
2018-11-03T03:26:39.307Z,14.41
2018-11-03T03:29:09.325Z,14.41
2018-11-03T03:31:39.136Z,14.39
2018-11-03T03:34:09.059Z,14.38
2018-11-03T03:36:38.899Z,14.38
2018-11-03T03:39:10.486Z,14.38
2018-11-03T03:41:40.754Z,14.39
2018-11-03T03:44:10.625Z,14.41
2018-11-03T03:46:40.507Z,14.42
2018-11-03T03:49:10.334Z,14.42
2018-11-03T03:51:40.255Z,14.43
2018-11-03T03:54:10.190Z,14.44
2018-11-03T03:56:40.037Z,14.46
2018-11-03T03:59:09.974Z,14.46
2018-11-03T04:01:39.754Z,14.44
2018-11-03T04:04:09.547Z,14.44
2018-11-03T04:06:39.363Z,14.46
2018-11-03T04:09:10.005Z,14.46
2018-11-03T04:11:39.835Z,14.46
2018-11-03T04:14:09.789Z,14.47
2018-11-03T04:16:39.805Z,14.48
2018-11-03T04:19:09.660Z,14.51
2018-11-03T04:21:39.450Z,14.51
2018-11-03T04:24:09.481Z,14.53
2018-11-03T04:26:39.352Z,14.52
2018-11-03T04:29:09.236Z,14.51
2018-11-03T04:31:39.092Z,14.50
2018-11-03T04:34:08.952Z,14.50
2018-11-03T04:36:38.817Z,14.47
2018-11-03T04:39:08.880Z,14.48
2018-11-03T04:41:38.666Z,14.47
2018-11-03T04:44:08.703Z,14.48
2018-11-03T04:46:38.610Z,14.47
2018-11-03T04:49:08.435Z,14.46
2018-11-03T04:51:38.200Z,14.47
2018-11-03T04:54:08.186Z,14.46
2018-11-03T04:56:38.040Z,13.78
2018-11-03T04:59:07.936Z,14.49
2018-11-03T05:01:37.808Z,14.48
2018-11-03T05:04:07.657Z,14.49
2018-11-03T05:06:37.496Z,14.47
2018-11-03T05:09:09.503Z,14.48
2018-11-03T05:11:39.567Z,14.49
2018-11-03T05:14:10.242Z,14.50
2018-11-03T05:16:40.149Z,14.52
2018-11-03T05:19:10.057Z,14.51
2018-11-03T05:21:39.903Z,14.52
2018-11-03T05:24:09.751Z,14.53
2018-11-03T05:26:39.638Z,14.54
2018-11-03T05:29:09.992Z,14.55
2018-11-03T05:31:39.896Z,14.54
2018-11-03T05:34:10.227Z,14.52
2018-11-03T05:36:40.172Z,14.52
2018-11-03T05:39:11.622Z,14.52
2018-11-03T05:41:42.168Z,14.51
2018-11-03T05:44:12.585Z,14.51
2018-11-03T05:46:42.767Z,14.48
2018-11-03T05:49:12.872Z,14.47
2018-11-03T05:51:42.668Z,14.48
2018-11-03T05:54:12.555Z,14.52
2018-11-03T05:56:42.422Z,14.52
2018-11-03T05:59:12.287Z,14.54
2018-11-03T06:01:42.136Z,14.55
2018-11-03T06:04:12.027Z,14.54
2018-11-03T06:06:41.871Z,14.54
2018-11-03T06:09:12.139Z,14.06
2018-11-03T06:11:41.931Z,14.57
2018-11-03T06:14:11.877Z,14.57
2018-11-03T06:16:41.724Z,14.61
2018-11-03T06:19:11.575Z,14.63
2018-11-03T06:21:41.481Z,14.64
2018-11-03T06:24:11.372Z,14.79
2018-11-03T06:26:41.385Z,14.46
2018-11-03T06:29:11.222Z,14.94
2018-11-03T06:31:41.542Z,14.97
2018-11-03T06:34:11.415Z,15.02
2018-11-03T06:36:41.324Z,15.05
2018-11-03T06:39:11.203Z,15.13
2018-11-03T06:41:41.049Z,15.27
2018-11-03T06:44:10.981Z,15.41
2018-11-03T06:46:40.859Z,15.49
2018-11-03T06:49:15.818Z,15.50
2018-11-03T06:51:45.635Z,15.52
2018-11-03T06:54:15.454Z,15.50
2018-11-03T06:56:45.395Z,15.51
2018-11-03T06:59:15.586Z,15.49
2018-11-03T07:01:45.459Z,15.47
2018-11-03T07:04:15.466Z,15.49
2018-11-03T07:06:45.353Z,15.45
2018-11-03T07:09:15.204Z,15.43
2018-11-03T07:11:45.091Z,15.43
2018-11-03T07:14:14.912Z,15.44
2018-11-03T07:16:44.838Z,15.40
2018-11-03T07:19:14.971Z,15.38
2018-11-03T07:21:44.905Z,15.33
2018-11-03T07:24:14.742Z,15.29
2018-11-03T07:26:44.662Z,15.27
2018-11-03T07:29:14.494Z,15.24
2018-11-03T07:31:44.415Z,15.22
2018-11-03T07:34:14.419Z,15.23
2018-11-03T07:36:44.291Z,15.29
2018-11-03T07:39:14.332Z,15.28
2018-11-03T07:41:44.158Z,15.28
2018-11-03T07:44:14.056Z,15.27
2018-11-03T07:46:43.982Z,15.29
2018-11-03T07:49:17.547Z,15.26
2018-11-03T07:51:48.500Z,15.26
2018-11-03T07:54:18.491Z,15.26
2018-11-03T07:56:48.379Z,15.30
2018-11-03T07:59:18.305Z,15.33
2018-11-03T08:01:48.206Z,15.35
2018-11-03T08:04:18.130Z,15.35
2018-11-03T08:06:48.000Z,15.36
2018-11-03T08:09:18.036Z,15.39
2018-11-03T08:11:47.830Z,15.42
2018-11-03T08:14:17.750Z,15.38
2018-11-03T08:16:47.762Z,15.36
2018-11-03T08:19:17.572Z,15.34
2018-11-03T08:21:47.370Z,15.32
2018-11-03T08:24:17.394Z,15.32
2018-11-03T08:26:47.318Z,15.35
2018-11-03T08:29:17.264Z,15.37
2018-11-03T08:31:47.336Z,15.24
2018-11-03T08:34:17.003Z,15.39
2018-11-03T08:36:46.873Z,15.46
2018-11-03T08:39:16.774Z,15.45
2018-11-03T08:41:46.564Z,15.45
2018-11-03T08:44:16.518Z,15.48
2018-11-03T08:46:46.458Z,15.52
2018-11-03T08:49:16.407Z,15.61
2018-11-03T08:51:46.324Z,15.58
2018-11-03T08:54:16.257Z,15.52
2018-11-03T08:56:46.157Z,15.52
2018-11-03T08:59:16.094Z,15.53
2018-11-03T09:01:45.958Z,15.51
2018-11-03T09:04:15.894Z,15.49
2018-11-03T09:06:45.828Z,15.52
2018-11-03T09:09:15.779Z,15.53
2018-11-03T09:11:45.813Z,15.58
2018-11-03T09:14:16.030Z,15.56
2018-11-03T09:16:46.042Z,15.58
2018-11-03T09:19:15.987Z,15.64
2018-11-03T09:21:45.947Z,15.70
2018-11-03T09:24:15.930Z,15.75
2018-11-03T09:26:45.869Z,15.81
2018-11-03T09:29:15.822Z,15.87
2018-11-03T09:31:45.713Z,15.95
2018-11-03T09:34:15.611Z,16.03
2018-11-03T09:36:45.514Z,16.10
2018-11-03T09:39:15.446Z,16.18
2018-11-03T09:41:45.250Z,16.28
2018-11-03T09:44:15.218Z,16.37
2018-11-03T09:46:45.152Z,16.43
2018-11-03T09:49:15.026Z,14.19
2018-11-03T09:51:44.986Z,16.40
2018-11-03T09:54:14.974Z,16.46
2018-11-03T09:56:44.916Z,16.56
2018-11-03T09:59:14.855Z,16.68
2018-11-03T10:01:44.811Z,16.86
2018-11-03T10:04:14.699Z,16.99
2018-11-03T10:06:44.841Z,17.01
2018-11-03T10:09:14.743Z,17.02
2018-11-03T10:11:44.721Z,17.17
2018-11-03T10:14:14.668Z,17.27
2018-11-03T10:16:44.707Z,17.36
2018-11-03T10:19:14.638Z,17.33
2018-11-03T10:21:44.583Z,17.28
2018-11-03T10:24:14.601Z,17.22
2018-11-03T10:26:44.560Z,17.18
2018-11-03T10:29:14.488Z,17.17
2018-11-03T10:31:44.339Z,17.12
2018-11-03T10:34:14.175Z,17.10
2018-11-03T10:36:44.071Z,17.06
2018-11-03T10:39:14.189Z,16.98
2018-11-03T10:41:44.025Z,16.95
2018-11-03T10:44:13.919Z,16.89
2018-11-03T10:46:43.931Z,16.87
2018-11-03T10:49:13.892Z,16.81
2018-11-03T10:51:43.779Z,16.80
2018-11-03T10:54:13.785Z,16.80
2018-11-03T10:56:43.713Z,16.81
2018-11-03T10:59:13.551Z,16.78
2018-11-03T11:01:48.511Z,16.76
2018-11-03T11:04:23.506Z,16.71
2018-11-03T11:06:58.663Z,16.67
2018-11-03T11:09:35.555Z,16.67
2018-11-03T11:12:13.367Z,16.23
2018-11-03T11:14:43.259Z,16.80
2018-11-03T11:17:13.214Z,16.84
2018-11-03T11:19:43.193Z,16.87
2018-11-03T11:22:12.982Z,16.89
2018-11-03T11:24:42.984Z,16.88
2018-11-03T11:27:12.950Z,16.89
2018-11-03T11:29:42.878Z,16.92
2018-11-03T11:32:12.716Z,16.94
2018-11-03T11:34:42.654Z,16.96
2018-11-03T11:37:12.659Z,17.02
2018-11-03T11:39:42.594Z,17.09
2018-11-03T11:42:12.525Z,17.16
2018-11-03T11:44:42.434Z,17.25
2018-11-03T11:47:12.375Z,17.28
2018-11-03T11:49:42.293Z,17.30
2018-11-03T11:52:12.267Z,17.31
2018-11-03T11:54:42.250Z,17.31
2018-11-03T11:57:12.200Z,17.35
2018-11-03T11:59:42.470Z,17.41
2018-11-03T12:02:12.417Z,17.50
2018-11-03T12:04:42.323Z,17.62
2018-11-03T12:07:12.223Z,17.77
2018-11-03T12:09:42.150Z,17.93
2018-11-03T12:12:12.071Z,18.02
2018-11-03T12:14:42.027Z,18.11
2018-11-03T12:17:11.903Z,18.23
2018-11-03T12:19:41.889Z,18.28
2018-11-03T12:22:11.758Z,18.28
2018-11-03T12:24:41.687Z,18.24
2018-11-03T12:27:11.683Z,18.24
2018-11-03T12:29:41.668Z,18.26
2018-11-03T12:32:11.563Z,18.25
2018-11-03T12:34:41.501Z,18.23
2018-11-03T12:37:11.406Z,18.16
2018-11-03T12:39:41.339Z,18.10
2018-11-03T12:42:11.243Z,18.01
2018-11-03T12:44:41.159Z,17.97
2018-11-03T12:47:11.110Z,17.96
2018-11-03T12:49:40.973Z,17.93
2018-11-03T12:52:10.829Z,17.89
2018-11-03T12:54:40.791Z,17.88
2018-11-03T12:57:10.667Z,17.87
2018-11-03T12:59:40.551Z,17.83
2018-11-03T13:02:10.567Z,17.91
2018-11-03T13:04:40.434Z,17.83
2018-11-03T13:07:10.439Z,17.76
2018-11-03T13:09:40.493Z,17.75
2018-11-03T13:12:10.496Z,17.67
2018-11-03T13:14:40.404Z,17.62
2018-11-03T13:17:10.316Z,17.65
2018-11-03T13:19:40.214Z,17.76
2018-11-03T13:22:10.099Z,17.41
2018-11-03T13:24:40.093Z,17.69
2018-11-03T13:27:10.022Z,17.65
2018-11-03T13:29:39.948Z,17.58
2018-11-03T13:32:10.007Z,17.51
2018-11-03T13:34:39.973Z,17.58
2018-11-03T13:37:09.949Z,17.64
2018-11-03T13:39:39.938Z,16.64
2018-11-03T13:42:09.810Z,17.62
2018-11-03T13:44:39.762Z,17.58
2018-11-03T13:47:09.733Z,17.57
2018-11-03T13:49:39.568Z,17.51
2018-11-03T13:52:09.504Z,17.35
2018-11-03T13:54:39.423Z,17.31
2018-11-03T13:57:09.487Z,17.30
2018-11-03T13:59:39.234Z,17.24
2018-11-03T14:02:09.186Z,17.30
2018-11-03T14:04:39.136Z,17.20
2018-11-03T14:07:09.046Z,17.10
2018-11-03T14:09:38.945Z,17.14
2018-11-03T14:12:08.829Z,17.08
2018-11-03T14:14:38.686Z,17.03
2018-11-03T14:17:08.739Z,16.97
2018-11-03T14:19:38.566Z,16.91
2018-11-03T14:22:08.441Z,16.84
2018-11-03T14:24:38.338Z,16.79
2018-11-03T14:27:08.275Z,16.76
2018-11-03T14:29:38.179Z,16.73
2018-11-03T14:32:08.148Z,16.70
2018-11-03T14:34:38.051Z,16.73
2018-11-03T14:37:08.170Z,16.66
2018-11-03T14:39:38.139Z,16.62
2018-11-03T14:42:08.023Z,16.54
2018-11-03T14:44:37.945Z,16.50
2018-11-03T14:47:07.890Z,16.50
2018-11-03T14:49:37.712Z,16.49
2018-11-03T14:52:07.578Z,16.48
2018-11-03T14:54:37.500Z,16.45
2018-11-03T14:57:07.521Z,16.37
2018-11-03T14:59:37.467Z,16.37
2018-11-03T15:02:07.355Z,16.33
2018-11-03T15:04:37.303Z,16.27
2018-11-03T15:07:07.365Z,16.26
2018-11-03T15:09:37.366Z,16.19
2018-11-03T15:12:07.330Z,16.15
2018-11-03T15:14:37.282Z,16.16
2018-11-03T15:17:07.510Z,16.10
2018-11-03T15:19:37.406Z,16.09
2018-11-03T15:22:07.671Z,16.06
2018-11-03T15:24:37.620Z,16.00
2018-11-03T15:27:07.511Z,16.00
2018-11-03T15:29:37.370Z,15.99
2018-11-03T15:32:07.356Z,15.97
2018-11-03T15:34:37.320Z,15.93
2018-11-03T15:37:07.546Z,15.88
2018-11-03T15:39:37.427Z,15.85
2018-11-03T15:42:07.335Z,15.82
2018-11-03T15:44:37.238Z,15.81
2018-11-03T15:47:07.223Z,15.76
2018-11-03T15:49:37.231Z,15.75
2018-11-03T15:52:07.151Z,15.30
2018-11-03T15:54:37.078Z,15.66
2018-11-03T15:57:07.067Z,15.62
2018-11-03T15:59:37.031Z,15.59
2018-11-03T16:02:06.976Z,15.58
2018-11-03T16:04:36.807Z,15.58
2018-11-03T16:07:07.111Z,15.59
2018-11-03T16:09:36.998Z,15.62
2018-11-03T16:12:07.227Z,15.62
2018-11-03T16:14:37.051Z,15.63
2018-11-03T16:17:06.985Z,15.71
2018-11-03T16:19:36.952Z,15.77
2018-11-03T16:22:06.771Z,15.81
2018-11-03T16:24:36.559Z,15.89
2018-11-03T16:27:06.980Z,15.98
2018-11-03T16:29:36.986Z,15.94
2018-11-03T16:32:06.969Z,15.85
2018-11-03T16:34:36.796Z,15.77
2018-11-03T16:37:06.740Z,15.70
2018-11-03T16:39:36.711Z,15.66
2018-11-03T16:42:06.739Z,15.62
2018-11-03T16:44:36.569Z,15.51
2018-11-03T16:47:06.948Z,15.39
2018-11-03T16:49:36.946Z,15.28
2018-11-03T16:52:06.807Z,15.22
2018-11-03T16:54:36.619Z,15.14
2018-11-03T16:57:06.507Z,15.08
2018-11-03T16:59:36.354Z,15.03
2018-11-03T17:02:06.630Z,14.98
2018-11-03T17:04:36.442Z,14.91
2018-11-03T17:07:06.374Z,14.88
2018-11-03T17:09:36.247Z,14.82
2018-11-03T17:12:06.522Z,14.78
2018-11-03T17:14:36.374Z,14.75
2018-11-03T17:17:06.264Z,14.74
2018-11-03T17:19:36.254Z,14.71
2018-11-03T17:22:06.414Z,14.68
2018-11-03T17:24:36.255Z,14.66
2018-11-03T17:27:06.192Z,14.64
2018-11-03T17:29:36.208Z,14.62
2018-11-03T17:32:06.414Z,14.55
2018-11-03T17:34:36.400Z,14.51
2018-11-03T17:37:06.366Z,14.49
2018-11-03T17:39:36.210Z,14.45
2018-11-03T17:42:06.346Z,14.41
2018-11-03T17:44:36.230Z,14.38
2018-11-03T17:47:06.622Z,14.36
2018-11-03T17:49:36.851Z,14.05
2018-11-03T17:52:07.025Z,14.27
2018-11-03T17:54:36.935Z,14.22
2018-11-03T17:57:06.954Z,14.21
2018-11-03T17:59:36.892Z,14.19
2018-11-03T18:02:06.831Z,14.18
2018-11-03T18:04:36.678Z,14.17
2018-11-03T18:07:06.902Z,14.16
2018-11-03T18:09:36.801Z,14.13
2018-11-03T18:12:06.794Z,14.11
2018-11-03T18:14:36.816Z,14.06
2018-11-03T18:17:06.783Z,14.02
2018-11-03T18:19:36.752Z,14.01
2018-11-03T18:22:06.651Z,14.01
2018-11-03T18:24:36.766Z,14.02
2018-11-03T18:27:07.036Z,14.03
2018-11-03T18:29:37.112Z,14.04
2018-11-03T18:32:07.056Z,14.07
2018-11-03T18:34:37.128Z,14.07
2018-11-03T18:37:07.106Z,14.07
2018-11-03T18:39:37.169Z,14.08
2018-11-03T18:42:07.248Z,14.10
2018-11-03T18:44:37.242Z,14.13
2018-11-03T18:47:07.202Z,14.15
2018-11-03T18:49:37.206Z,14.16
2018-11-03T18:52:07.256Z,14.16
2018-11-03T18:54:37.200Z,14.16
2018-11-03T18:57:07.171Z,14.20
2018-11-03T18:59:37.191Z,14.20
2018-11-03T19:02:07.118Z,14.18
2018-11-03T19:04:37.173Z,14.15
2018-11-03T19:07:07.147Z,14.15
2018-11-03T19:09:37.151Z,14.12
2018-11-03T19:12:07.865Z,14.10
2018-11-03T19:14:37.909Z,14.02
2018-11-03T19:17:07.910Z,13.97
2018-11-03T19:19:37.851Z,13.92
2018-11-03T19:22:08.787Z,13.88
2018-11-03T19:24:38.678Z,13.87
2018-11-03T19:27:08.752Z,13.87
2018-11-03T19:29:38.899Z,13.89
2018-11-03T19:32:08.877Z,13.89
2018-11-03T19:34:38.897Z,13.89
2018-11-03T19:37:08.867Z,13.92
2018-11-03T19:39:38.803Z,13.92
2018-11-03T19:42:08.667Z,13.94
2018-11-03T19:44:38.701Z,13.95
2018-11-03T19:47:08.782Z,14.00
2018-11-03T19:49:38.873Z,13.97
2018-11-03T19:52:09.019Z,13.97
2018-11-03T19:54:39.010Z,13.95
2018-11-03T19:57:08.942Z,13.92
2018-11-03T19:59:38.955Z,13.89
2018-11-03T20:02:08.915Z,13.88
2018-11-03T20:04:38.991Z,13.86
2018-11-03T20:07:09.135Z,13.86
2018-11-03T20:09:39.315Z,13.86
2018-11-03T20:12:09.642Z,13.85
2018-11-03T20:14:39.598Z,13.84
2018-11-03T20:17:09.639Z,13.85
2018-11-03T20:19:39.688Z,13.79
2018-11-03T20:22:09.672Z,13.75
2018-11-03T20:24:39.891Z,13.71
2018-11-03T20:27:09.989Z,13.65
2018-11-03T20:29:40.008Z,13.62
2018-11-03T20:32:09.996Z,13.63
2018-11-03T20:34:40.209Z,13.66
2018-11-03T20:37:10.187Z,13.70
2018-11-03T20:39:40.403Z,13.72
2018-11-03T20:42:10.327Z,13.22
2018-11-03T20:44:40.195Z,13.73
2018-11-03T20:47:11.326Z,11.00
2018-11-03T20:49:41.254Z,13.76
2018-11-03T20:52:11.463Z,13.77
2018-11-03T20:54:41.315Z,13.82
2018-11-03T20:57:11.200Z,13.86
2018-11-03T20:59:41.111Z,13.90
2018-11-03T21:02:11.204Z,13.87
2018-11-03T21:04:40.990Z,13.85
2018-11-03T21:07:10.909Z,13.84
2018-11-03T21:09:40.846Z,13.88
2018-11-03T21:12:10.826Z,13.84
2018-11-03T21:14:40.744Z,13.86
2018-11-03T21:17:10.695Z,13.89
2018-11-03T21:19:40.591Z,13.90
2018-11-03T21:22:12.112Z,13.94
2018-11-03T21:24:42.903Z,13.96
2018-11-03T21:27:13.269Z,13.95
2018-11-03T21:29:43.394Z,13.96
2018-11-03T21:32:13.441Z,13.99
2018-11-03T21:34:43.326Z,14.03
2018-11-03T21:37:13.240Z,14.01
2018-11-03T21:39:43.595Z,14.03
2018-11-03T21:42:13.571Z,14.06
2018-11-03T21:44:43.527Z,14.09
2018-11-03T21:47:13.595Z,14.13
2018-11-03T21:49:43.478Z,14.17
2018-11-03T21:52:13.395Z,14.27
2018-11-03T21:54:43.319Z,14.31
2018-11-03T21:57:13.258Z,14.32
2018-11-03T21:59:43.194Z,14.37
2018-11-03T22:02:13.009Z,14.42
2018-11-03T22:04:42.847Z,14.46
2018-11-03T22:07:12.803Z,14.44
2018-11-03T22:09:42.631Z,14.43
2018-11-03T22:12:12.518Z,14.40
2018-11-03T22:14:42.484Z,14.37
2018-11-03T22:17:12.315Z,14.35
2018-11-03T22:19:42.189Z,14.39
2018-11-03T22:22:12.067Z,14.39
2018-11-03T22:24:41.886Z,14.38
2018-11-03T22:27:11.854Z,14.38
2018-11-03T22:29:41.787Z,14.37
2018-11-03T22:32:11.718Z,14.35
2018-11-03T22:34:41.635Z,14.35
2018-11-03T22:37:11.621Z,14.35
2018-11-03T22:39:41.484Z,14.33
2018-11-03T22:42:11.467Z,14.31
2018-11-03T22:44:41.404Z,14.27
2018-11-03T22:47:11.365Z,14.26
2018-11-03T22:49:41.301Z,14.24
2018-11-03T22:52:11.228Z,14.24
2018-11-03T22:54:41.168Z,14.27
2018-11-03T22:57:11.089Z,14.28
2018-11-03T22:59:40.990Z,14.31
2018-11-03T23:02:10.899Z,14.31
2018-11-03T23:04:40.782Z,14.31
2018-11-03T23:07:10.719Z,14.31
2018-11-03T23:09:40.625Z,14.33
2018-11-03T23:12:10.490Z,14.34
2018-11-03T23:14:40.370Z,14.36
2018-11-03T23:17:10.213Z,14.36
2018-11-03T23:19:40.384Z,14.34
2018-11-03T23:22:10.279Z,14.32
2018-11-03T23:24:40.211Z,14.34
2018-11-03T23:27:10.047Z,14.34
2018-11-03T23:29:40.107Z,14.29
2018-11-03T23:32:09.923Z,14.27
2018-11-03T23:34:39.863Z,14.27
2018-11-03T23:37:09.913Z,14.27
2018-11-03T23:39:39.780Z,14.27
2018-11-03T23:42:09.757Z,14.26
2018-11-03T23:44:39.692Z,14.25
2018-11-03T23:47:09.497Z,14.25
2018-11-03T23:49:39.360Z,14.25
2018-11-03T23:52:09.271Z,14.27
2018-11-03T23:54:39.133Z,14.29
2018-11-03T23:57:08.943Z,14.30
2018-11-03T23:59:38.892Z,14.30
